Time,TemperatureF,DewpointF,PressureIn,WindDirection,WindDirectionDegrees,WindSpeedMPH,WindSpeedGustMPH,Humidity,HourlyPrecipIn,Conditions,Clouds,dailyrainin,SolarRadiationWatts/m^2,SoftwareType,DateUTC
2013-08-20 00:00:00,67.2,58.1,29.36,ENE,74,3.8,7.2,72,0.00,,,-99.99,1.0,HOBO +U30 +Weather +,2013-08-20 04:00:00,
2013-08-20 00:05:00,66.9,58.0,29.36,ENE,70,3.8,6.7,72,0.00,,,-99.99,1.0,HOBO +U30 +Weather +,2013-08-20 04:05:00,
2013-08-20 00:10:00,66.4,57.9,29.36,ENE,76,2.9,5.8,73,0.00,,,-99.99,1.0,HOBO +U30 +Weather +,2013-08-20 04:10:00,
2013-08-20 00:15:00,66.2,58.0,29.36,ENE,72,2.9,5.8,74,0.00,,,-99.99,1.0,HOBO +U30 +Weather +,2013-08-20 04:15:00,
2013-08-20 00:20:00,65.9,57.9,29.36,ENE,60,2.0,4.3,75,0.00,,,-99.99,1.0,HOBO +U30 +Weather +,2013-08-20 04:20:00,
2013-08-20 00:25:00,64.2,56.8,29.36,ENE,69,1.3,2.5,76,0.00,,,-99.99,1.0,HOBO +U30 +Weather +,2013-08-20 04:25:00,
2013-08-20 00:30:00,63.2,56.7,29.36,East,88,1.6,2.5,79,0.00,,,-99.99,1.0,HOBO +U30 +Weather +,2013-08-20 04:30:00,
2013-08-20 00:35:00,64.8,58.4,29.36,ENE,77,2.9,4.9,79,0.00,,,-99.99,1.0,HOBO +U30 +Weather +,2013-08-20 04:35:00,
2013-08-20 00:45:00,66.4,58.6,29.36,ENE,65,5.4,10.1,75,0.00,,,-99.99,1.0,HOBO +U30 +Weather +,2013-08-20 04:45:00,
2013-08-20 00:48:00,65.9,58.7,29.36,ENE,70,4.5,7.4,77,0.00,,,-99.99,1.0,HOBO +U30 +Weather +,2013-08-20 04:48:00,
2013-08-20 00:50:00,66.5,58.5,29.36,ENE,62,4.9,7.8,75,0.00,,,-99.99,1.0,HOBO +U30 +Weather +,2013-08-20 04:50:00,
2013-08-20 00:55:00,66.5,58.4,29.36,ENE,60,5.8,9.6,75,0.00,,,-99.99,1.0,HOBO +U30 +Weather +,2013-08-20 04:55:00,
2013-08-20 01:00:00,66.4,58.3,29.36,ENE,59,5.4,8.3,75,0.00,,,-99.99,1.0,HOBO +U30 +Weather +,2013-08-20 05:00:00,
2013-08-20 01:05:00,66.4,58.2,29.36,NE,55,5.4,8.7,74,0.00,,,-99.99,1.0,HOBO +U30 +Weather +,2013-08-20 05:05:00,
2013-08-20 01:10:00,66.2,58.1,29.36,ENE,59,4.5,8.7,75,0.00,,,-99.99,1.0,HOBO +U30 +Weather +,2013-08-20 05:10:00,
2013-08-20 01:15:00,66.3,58.1,29.36,ENE,66,4.5,7.4,74,0.00,,,-99.99,1.0,HOBO +U30 +Weather +,2013-08-20 05:15:00,
2013-08-20 01:20:00,66.3,58.0,29.36,ENE,67,4.3,6.7,74,0.00,,,-99.99,1.0,HOBO +U30 +Weather +,2013-08-20 05:20:00,
2013-08-20 01:25:00,65.0,57.1,29.36,ENE,73,3.4,6.7,75,0.00,,,-99.99,1.0,HOBO +U30 +Weather +,2013-08-20 05:25:00,
2013-08-20 01:30:00,65.3,57.8,29.36,East,80,3.8,6.7,76,0.00,,,-99.99,1.0,HOBO +U30 +Weather +,2013-08-20 05:30:00,
2013-08-20 01:35:00,65.0,57.5,29.36,ENE,74,3.8,5.8,76,0.00,,,-99.99,1.0,HOBO +U30 +Weather +,2013-08-20 05:35:00,
2013-08-20 01:45:00,65.4,58.0,29.36,ENE,65,3.8,6.3,77,0.00,,,-99.99,1.0,HOBO +U30 +Weather +,2013-08-20 05:45:00,
2013-08-20 01:48:00,64.8,57.5,29.36,ENE,74,3.4,5.4,77,0.00,,,-99.99,1.0,HOBO +U30 +Weather +,2013-08-20 05:48:00,
2013-08-20 01:50:00,64.5,57.2,29.36,East,79,2.5,4.9,77,0.00,,,-99.99,1.0,HOBO +U30 +Weather +,2013-08-20 05:50:00,
2013-08-20 01:55:00,64.0,57.1,29.36,ENE,65,1.3,4.3,78,0.00,,,-99.99,1.0,HOBO +U30 +Weather +,2013-08-20 05:55:00,
2013-08-20 02:00:00,64.1,57.5,29.36,ENE,70,2.5,3.8,78,0.00,,,-99.99,1.0,HOBO +U30 +Weather +,2013-08-20 06:00:00,
2013-08-20 02:05:00,64.5,57.8,29.36,ENE,70,3.8,6.7,78,0.00,,,-99.99,1.0,HOBO +U30 +Weather +,2013-08-20 06:05:00,
2013-08-20 02:10:00,64.7,57.7,29.36,ENE,72,3.8,5.8,78,0.00,,,-99.99,1.0,HOBO +U30 +Weather +,2013-08-20 06:10:00,
2013-08-20 02:15:00,64.7,57.7,29.36,ENE,66,3.8,5.8,78,0.00,,,-99.99,1.0,HOBO +U30 +Weather +,2013-08-20 06:15:00,
2013-08-20 02:20:00,64.7,57.8,29.36,ENE,66,4.3,7.4,78,0.00,,,-99.99,1.0,HOBO +U30 +Weather +,2013-08-20 06:20:00,
2013-08-20 02:25:00,64.5,57.7,29.36,ENE,76,4.3,8.3,78,0.00,,,-99.99,1.0,HOBO +U30 +Weather +,2013-08-20 06:25:00,
2013-08-20 02:30:00,64.5,57.6,29.37,ENE,70,3.4,7.2,78,0.00,,,-99.99,1.0,HOBO +U30 +Weather +,2013-08-20 06:30:00,
2013-08-20 02:35:00,63.9,57.2,29.37,ENE,74,2.5,7.2,78,0.00,,,-99.99,1.0,HOBO +U30 +Weather +,2013-08-20 06:35:00,
2013-08-20 02:45:00,64.1,57.5,29.36,ENE,60,3.4,7.4,79,0.00,,,-99.99,1.0,HOBO +U30 +Weather +,2013-08-20 06:45:00,
2013-08-20 02:48:00,64.2,57.6,29.37,ENE,59,3.4,6.7,79,0.00,,,-99.99,1.0,HOBO +U30 +Weather +,2013-08-20 06:48:00,
2013-08-20 02:50:00,62.8,56.6,29.37,East,100,1.6,2.5,80,0.00,,,-99.99,1.0,HOBO +U30 +Weather +,2013-08-20 06:50:00,
2013-08-20 02:55:00,62.5,56.7,29.37,East,88,2.0,4.3,81,0.00,,,-99.99,1.0,HOBO +U30 +Weather +,2013-08-20 06:55:00,
2013-08-20 03:00:00,61.6,56.0,29.37,ESE,102,1.6,4.3,81,0.00,,,-99.99,1.0,HOBO +U30 +Weather +,2013-08-20 07:00:00,
2013-08-20 03:05:00,61.5,56.3,29.37,ESE,105,2.0,3.4,83,0.00,,,-99.99,1.0,HOBO +U30 +Weather +,2013-08-20 07:05:00,
2013-08-20 03:10:00,61.9,56.8,29.37,East,83,2.0,3.8,83,0.00,,,-99.99,1.0,HOBO +U30 +Weather +,2013-08-20 07:10:00,
2013-08-20 03:15:00,61.4,56.4,29.37,ESE,104,2.0,3.8,83,0.00,,,-99.99,1.0,HOBO +U30 +Weather +,2013-08-20 07:15:00,
2013-08-20 03:20:00,62.8,57.8,29.37,ENE,69,3.4,7.4,83,0.00,,,-99.99,1.0,HOBO +U30 +Weather +,2013-08-20 07:20:00,
2013-08-20 03:25:00,61.1,55.7,29.37,SE,139,1.6,3.4,82,0.00,,,-99.99,1.0,HOBO +U30 +Weather +,2013-08-20 07:25:00,
2013-08-20 03:30:00,61.6,56.6,29.37,East,91,2.0,4.9,83,0.00,,,-99.99,1.0,HOBO +U30 +Weather +,2013-08-20 07:30:00,
2013-08-20 03:35:00,62.1,56.8,29.37,East,91,2.0,4.5,82,0.00,,,-99.99,1.0,HOBO +U30 +Weather +,2013-08-20 07:35:00,
2013-08-20 03:45:00,63.0,57.4,29.37,ENE,73,2.9,9.2,81,0.00,,,-99.99,1.0,HOBO +U30 +Weather +,2013-08-20 07:45:00,
2013-08-20 03:48:00,62.7,57.5,29.37,East,91,2.9,6.7,82,0.00,,,-99.99,1.0,HOBO +U30 +Weather +,2013-08-20 07:48:00,
2013-08-20 03:50:00,63.3,57.6,29.37,East,83,4.3,7.4,81,0.00,,,-99.99,1.0,HOBO +U30 +Weather +,2013-08-20 07:50:00,
2013-08-20 03:55:00,63.6,57.7,29.37,ENE,73,4.9,8.7,80,0.00,,,-99.99,1.0,HOBO +U30 +Weather +,2013-08-20 07:55:00,
2013-08-20 04:00:00,63.5,57.4,29.37,ENE,76,6.3,9.2,80,0.00,,,-99.99,1.0,HOBO +U30 +Weather +,2013-08-20 08:00:00,
2013-08-20 04:05:00,63.3,57.3,29.37,ENE,77,5.4,8.3,80,0.00,,,-99.99,1.0,HOBO +U30 +Weather +,2013-08-20 08:05:00,
2013-08-20 04:10:00,63.4,57.4,29.37,ENE,73,6.3,9.6,80,0.00,,,-99.99,1.0,HOBO +U30 +Weather +,2013-08-20 08:10:00,
2013-08-20 04:15:00,63.5,57.4,29.37,ENE,76,6.3,9.2,80,0.00,,,-99.99,1.0,HOBO +U30 +Weather +,2013-08-20 08:15:00,
2013-08-20 04:20:00,63.4,57.2,29.37,ENE,77,5.4,8.3,80,0.00,,,-99.99,1.0,HOBO +U30 +Weather +,2013-08-20 08:20:00,
2013-08-20 04:25:00,63.3,57.1,29.37,ENE,73,4.9,7.4,80,0.00,,,-99.99,1.0,HOBO +U30 +Weather +,2013-08-20 08:25:00,
2013-08-20 04:30:00,63.2,57.0,29.37,East,79,3.8,6.3,80,0.00,,,-99.99,1.0,HOBO +U30 +Weather +,2013-08-20 08:30:00,
2013-08-20 04:35:00,63.4,57.1,29.37,ENE,65,4.5,6.3,79,0.00,,,-99.99,1.0,HOBO +U30 +Weather +,2013-08-20 08:35:00,
2013-08-20 04:45:00,63.6,57.2,29.37,ENE,67,4.9,7.8,79,0.00,,,-99.99,1.0,HOBO +U30 +Weather +,2013-08-20 08:45:00,
2013-08-20 04:48:00,63.4,57.1,29.37,ENE,66,4.5,7.4,79,0.00,,,-99.99,1.0,HOBO +U30 +Weather +,2013-08-20 08:48:00,
2013-08-20 04:50:00,62.7,56.3,29.37,East,87,3.4,7.4,79,0.00,,,-99.99,1.0,HOBO +U30 +Weather +,2013-08-20 08:50:00,
2013-08-20 04:55:00,61.6,55.7,29.37,ESE,114,2.5,4.5,80,0.00,,,-99.99,1.0,HOBO +U30 +Weather +,2013-08-20 08:55:00,
2013-08-20 05:00:00,60.9,55.7,29.38,ESE,119,3.8,5.4,82,0.00,,,-99.99,1.0,HOBO +U30 +Weather +,2013-08-20 09:00:00,
2013-08-20 05:05:00,60.4,55.5,29.38,ESE,111,2.9,4.9,83,0.00,,,-99.99,1.0,HOBO +U30 +Weather +,2013-08-20 09:05:00,
2013-08-20 05:10:00,59.5,55.0,29.38,ESE,104,2.0,3.4,84,0.00,,,-99.99,1.0,HOBO +U30 +Weather +,2013-08-20 09:10:00,
2013-08-20 05:15:00,59.1,55.0,29.38,ESE,104,1.3,2.5,85,0.00,,,-99.99,1.0,HOBO +U30 +Weather +,2013-08-20 09:15:00,
2013-08-20 05:20:00,58.9,54.9,29.38,ESE,104,0.0,0.9,86,0.00,,,-99.99,1.0,HOBO +U30 +Weather +,2013-08-20 09:20:00,
2013-08-20 05:25:00,58.9,55.1,29.38,ESE,104,0.4,1.6,87,0.00,,,-99.99,1.0,HOBO +U30 +Weather +,2013-08-20 09:25:00,
2013-08-20 05:30:00,58.9,55.1,29.38,ESE,110,1.6,2.9,87,0.00,,,-99.99,1.0,HOBO +U30 +Weather +,2013-08-20 09:30:00,
2013-08-20 05:35:00,58.7,55.0,29.38,SE,128,0.9,2.5,87,0.00,,,-99.99,1.0,HOBO +U30 +Weather +,2013-08-20 09:35:00,
2013-08-20 05:45:00,58.7,55.2,29.39,ESE,108,2.5,4.3,87,0.00,,,-99.99,1.0,HOBO +U30 +Weather +,2013-08-20 09:45:00,
2013-08-20 05:48:00,58.8,55.2,29.38,East,95,2.0,3.8,87,0.00,,,-99.99,1.0,HOBO +U30 +Weather +,2013-08-20 09:48:00,
2013-08-20 05:50:00,58.5,55.1,29.39,East,86,3.8,5.4,88,0.00,,,-99.99,1.0,HOBO +U30 +Weather +,2013-08-20 09:50:00,
2013-08-20 05:55:00,58.5,55.1,29.39,ESE,108,4.3,7.2,88,0.00,,,-99.99,1.0,HOBO +U30 +Weather +,2013-08-20 09:55:00,
2013-08-20 06:00:00,58.7,55.3,29.39,ESE,108,2.5,5.4,88,0.00,,,-99.99,1.0,HOBO +U30 +Weather +,2013-08-20 10:00:00,
2013-08-20 06:05:00,60.5,56.8,29.39,East,79,4.3,5.8,87,0.00,,,-99.99,1.0,HOBO +U30 +Weather +,2013-08-20 10:05:00,
2013-08-20 06:10:00,59.4,55.3,29.39,ESE,118,3.4,5.4,86,0.00,,,-99.99,1.0,HOBO +U30 +Weather +,2013-08-20 10:10:00,
2013-08-20 06:15:00,60.2,56.2,29.39,East,83,3.4,6.3,86,0.00,,,-99.99,2.0,HOBO +U30 +Weather +,2013-08-20 10:15:00,
2013-08-20 06:20:00,59.5,55.2,29.39,SE,124,3.8,6.7,85,0.00,,,-99.99,4.0,HOBO +U30 +Weather +,2013-08-20 10:20:00,
2013-08-20 06:25:00,59.8,55.6,29.40,East,88,2.9,4.9,86,0.00,,,-99.99,8.0,HOBO +U30 +Weather +,2013-08-20 10:25:00,
2013-08-20 06:30:00,60.1,55.7,29.40,East,100,3.4,5.4,85,0.00,,,-99.99,12.0,HOBO +U30 +Weather +,2013-08-20 10:30:00,
2013-08-20 06:35:00,60.1,55.5,29.40,ESE,107,3.4,5.4,84,0.00,,,-99.99,17.0,HOBO +U30 +Weather +,2013-08-20 10:35:00,
2013-08-20 06:45:00,60.5,55.8,29.40,East,98,3.4,5.4,84,0.00,,,-99.99,27.0,HOBO +U30 +Weather +,2013-08-20 10:45:00,
2013-08-20 06:49:00,60.2,55.6,29.40,ESE,110,4.5,8.3,84,0.00,,,-99.99,22.0,HOBO +U30 +Weather +,2013-08-20 10:49:00,
2013-08-20 06:50:00,60.3,55.5,29.41,ESE,110,3.4,5.4,84,0.00,,,-99.99,46.0,HOBO +U30 +Weather +,2013-08-20 10:50:00,
2013-08-20 06:55:00,60.2,55.5,29.41,ESE,107,2.9,4.9,84,0.00,,,-99.99,63.0,HOBO +U30 +Weather +,2013-08-20 10:55:00,
2013-08-20 07:00:00,60.2,55.5,29.40,ESE,110,3.8,4.9,84,0.00,,,-99.99,76.0,HOBO +U30 +Weather +,2013-08-20 11:00:00,
2013-08-20 07:05:00,60.9,56.1,29.41,East,94,3.4,5.4,84,0.00,,,-99.99,86.0,HOBO +U30 +Weather +,2013-08-20 11:05:00,
2013-08-20 07:10:00,61.9,56.7,29.41,East,86,4.3,10.7,82,0.00,,,-99.99,99.0,HOBO +U30 +Weather +,2013-08-20 11:10:00,
2013-08-20 07:15:00,62.0,56.3,29.41,East,91,4.3,7.2,81,0.00,,,-99.99,112.0,HOBO +U30 +Weather +,2013-08-20 11:15:00,
2013-08-20 07:20:00,61.5,55.8,29.41,East,98,3.8,7.2,81,0.00,,,-99.99,126.0,HOBO +U30 +Weather +,2013-08-20 11:20:00,
2013-08-20 07:25:00,62.1,56.4,29.41,East,93,3.8,7.2,81,0.00,,,-99.99,138.0,HOBO +U30 +Weather +,2013-08-20 11:25:00,
2013-08-20 07:30:00,62.3,56.3,29.41,East,91,4.3,7.4,80,0.00,,,-99.99,151.0,HOBO +U30 +Weather +,2013-08-20 11:30:00,
2013-08-20 07:35:00,62.5,56.4,29.41,East,95,4.3,7.2,80,0.00,,,-99.99,164.0,HOBO +U30 +Weather +,2013-08-20 11:35:00,
2013-08-20 07:45:00,63.2,56.6,29.41,ENE,77,5.8,10.7,78,0.00,,,-99.99,199.0,HOBO +U30 +Weather +,2013-08-20 11:45:00,
2013-08-20 07:48:00,62.9,56.6,29.41,East,84,4.3,8.3,79,0.00,,,-99.99,181.0,HOBO +U30 +Weather +,2013-08-20 11:48:00,
2013-08-20 07:50:00,63.4,56.6,29.41,East,83,5.8,9.6,78,0.00,,,-99.99,213.0,HOBO +U30 +Weather +,2013-08-20 11:50:00,
2013-08-20 07:55:00,63.4,56.4,29.41,East,88,5.4,8.7,77,0.00,,,-99.99,228.0,HOBO +U30 +Weather +,2013-08-20 11:55:00,
2013-08-20 08:00:00,63.4,56.3,29.41,East,84,6.3,10.3,77,0.00,,,-99.99,247.0,HOBO +U30 +Weather +,2013-08-20 12:00:00,
2013-08-20 08:05:00,63.6,56.5,29.41,East,83,5.8,9.6,77,0.00,,,-99.99,263.0,HOBO +U30 +Weather +,2013-08-20 12:05:00,
2013-08-20 08:10:00,63.8,56.6,29.41,East,87,4.9,9.2,77,0.00,,,-99.99,281.0,HOBO +U30 +Weather +,2013-08-20 12:10:00,
2013-08-20 08:15:00,64.1,56.8,29.41,East,90,4.9,8.3,77,0.00,,,-99.99,297.0,HOBO +U30 +Weather +,2013-08-20 12:15:00,
2013-08-20 08:20:00,64.4,57.0,29.42,East,93,4.9,7.4,76,0.00,,,-99.99,307.0,HOBO +U30 +Weather +,2013-08-20 12:20:00,
2013-08-20 08:25:00,64.6,57.2,29.42,East,93,4.5,7.4,76,0.00,,,-99.99,321.0,HOBO +U30 +Weather +,2013-08-20 12:25:00,
2013-08-20 08:30:00,64.9,57.3,29.42,East,91,4.9,8.7,76,0.00,,,-99.99,337.0,HOBO +U30 +Weather +,2013-08-20 12:30:00,
2013-08-20 08:35:00,65.0,57.2,29.42,East,86,6.3,10.3,75,0.00,,,-99.99,351.0,HOBO +U30 +Weather +,2013-08-20 12:35:00,
2013-08-20 08:45:00,65.9,57.7,29.42,East,95,4.3,7.4,74,0.00,,,-99.99,377.0,HOBO +U30 +Weather +,2013-08-20 12:45:00,
2013-08-20 08:47:00,65.4,57.4,29.42,East,97,4.9,7.8,75,0.00,,,-99.99,364.0,HOBO +U30 +Weather +,2013-08-20 12:47:00,
2013-08-20 08:50:00,66.0,57.6,29.42,East,93,4.9,8.3,74,0.00,,,-99.99,397.0,HOBO +U30 +Weather +,2013-08-20 12:50:00,
2013-08-20 08:55:00,66.3,57.8,29.42,East,88,4.5,9.2,73,0.00,,,-99.99,413.0,HOBO +U30 +Weather +,2013-08-20 12:55:00,
2013-08-20 09:00:00,66.9,58.1,29.42,East,87,4.9,8.3,73,0.00,,,-99.99,428.0,HOBO +U30 +Weather +,2013-08-20 13:00:00,
2013-08-20 09:05:00,67.1,58.1,29.42,East,80,4.5,7.4,72,0.00,,,-99.99,443.0,HOBO +U30 +Weather +,2013-08-20 13:05:00,
2013-08-20 09:10:00,67.7,58.4,29.42,East,88,3.8,6.7,72,0.00,,,-99.99,457.0,HOBO +U30 +Weather +,2013-08-20 13:10:00,
2013-08-20 09:15:00,67.7,58.4,29.42,East,94,4.5,8.3,72,0.00,,,-99.99,472.0,HOBO +U30 +Weather +,2013-08-20 13:15:00,
2013-08-20 09:20:00,68.0,58.4,29.42,East,87,4.3,8.3,71,0.00,,,-99.99,486.0,HOBO +U30 +Weather +,2013-08-20 13:20:00,
2013-08-20 09:25:00,68.2,58.8,29.42,East,86,4.5,9.2,71,0.00,,,-99.99,499.0,HOBO +U30 +Weather +,2013-08-20 13:25:00,
2013-08-20 09:30:00,68.2,58.7,29.42,East,91,5.4,9.2,71,0.00,,,-99.99,514.0,HOBO +U30 +Weather +,2013-08-20 13:30:00,
2013-08-20 09:35:00,68.8,59.2,29.42,East,80,5.4,9.2,71,0.00,,,-99.99,528.0,HOBO +U30 +Weather +,2013-08-20 13:35:00,
2013-08-20 09:45:00,69.3,59.5,29.42,ENE,74,6.3,10.3,70,0.00,,,-99.99,556.0,HOBO +U30 +Weather +,2013-08-20 13:45:00,
2013-08-20 09:47:00,69.3,59.4,29.42,ENE,74,5.8,10.7,70,0.00,,,-99.99,541.0,HOBO +U30 +Weather +,2013-08-20 13:47:00,
2013-08-20 09:50:00,69.7,59.8,29.42,East,79,5.8,8.7,70,0.00,,,-99.99,568.0,HOBO +U30 +Weather +,2013-08-20 13:50:00,
2013-08-20 09:55:00,70.6,60.5,29.41,East,80,4.9,8.3,70,0.00,,,-99.99,582.0,HOBO +U30 +Weather +,2013-08-20 13:55:00,
2013-08-20 10:00:00,71.0,60.5,29.42,East,91,4.3,7.4,69,0.00,,,-99.99,594.0,HOBO +U30 +Weather +,2013-08-20 14:00:00,
2013-08-20 10:05:00,70.8,60.2,29.42,East,90,5.4,8.7,69,0.00,,,-99.99,607.0,HOBO +U30 +Weather +,2013-08-20 14:05:00,
2013-08-20 10:10:00,71.1,60.3,29.41,East,100,4.5,7.4,68,0.00,,,-99.99,618.0,HOBO +U30 +Weather +,2013-08-20 14:10:00,
2013-08-20 10:15:00,70.9,60.3,29.41,East,87,5.8,9.2,68,0.00,,,-99.99,628.0,HOBO +U30 +Weather +,2013-08-20 14:15:00,
2013-08-20 10:20:00,71.9,61.0,29.41,East,101,4.3,8.7,68,0.00,,,-99.99,639.0,HOBO +U30 +Weather +,2013-08-20 14:20:00,
2013-08-20 10:25:00,71.8,60.9,29.41,East,81,5.8,8.7,68,0.00,,,-99.99,649.0,HOBO +U30 +Weather +,2013-08-20 14:25:00,
2013-08-20 10:30:00,72.4,61.3,29.41,East,84,4.9,10.1,68,0.00,,,-99.99,657.0,HOBO +U30 +Weather +,2013-08-20 14:30:00,
2013-08-20 10:35:00,72.8,61.6,29.41,ENE,73,7.2,10.7,67,0.00,,,-99.99,673.0,HOBO +U30 +Weather +,2013-08-20 14:35:00,
2013-08-20 10:40:00,73.7,62.2,29.41,East,88,4.5,7.8,67,0.00,,,-99.99,679.0,HOBO +U30 +Weather +,2013-08-20 14:40:00,
2013-08-20 10:45:00,74.7,62.7,29.41,East,95,4.5,8.7,66,0.00,,,-99.99,692.0,HOBO +U30 +Weather +,2013-08-20 14:45:00,
2013-08-20 10:50:00,74.4,62.0,29.41,East,98,4.5,7.8,65,0.00,,,-99.99,698.0,HOBO +U30 +Weather +,2013-08-20 14:50:00,
2013-08-20 10:55:00,73.8,61.6,29.41,East,90,5.8,9.2,65,0.00,,,-99.99,708.0,HOBO +U30 +Weather +,2013-08-20 14:55:00,
2013-08-20 11:00:00,74.7,62.6,29.41,East,79,5.4,8.3,65,0.00,,,-99.99,718.0,HOBO +U30 +Weather +,2013-08-20 15:00:00,
2013-08-20 11:05:00,75.6,63.0,29.41,East,81,4.5,8.7,65,0.00,,,-99.99,729.0,HOBO +U30 +Weather +,2013-08-20 15:05:00,
2013-08-20 11:10:00,75.7,62.9,29.41,ESE,112,4.3,8.7,64,0.00,,,-99.99,738.0,HOBO +U30 +Weather +,2013-08-20 15:10:00,
2013-08-20 11:15:00,75.5,62.5,29.41,ESE,115,4.9,7.4,64,0.00,,,-99.99,743.0,HOBO +U30 +Weather +,2013-08-20 15:15:00,
2013-08-20 11:20:00,76.2,63.2,29.41,East,100,4.9,8.3,64,0.00,,,-99.99,754.0,HOBO +U30 +Weather +,2013-08-20 15:20:00,
2013-08-20 11:25:00,76.3,63.1,29.41,East,84,4.5,7.2,63,0.00,,,-99.99,763.0,HOBO +U30 +Weather +,2013-08-20 15:25:00,
2013-08-20 11:30:00,77.2,63.6,29.41,ESE,115,4.3,7.4,62,0.00,,,-99.99,774.0,HOBO +U30 +Weather +,2013-08-20 15:30:00,
2013-08-20 11:35:00,77.2,63.4,29.41,East,81,4.5,7.2,62,0.00,,,-99.99,782.0,HOBO +U30 +Weather +,2013-08-20 15:35:00,
2013-08-20 11:40:00,78.2,63.6,29.41,East,97,3.8,7.2,60,0.00,,,-99.99,789.0,HOBO +U30 +Weather +,2013-08-20 15:40:00,
2013-08-20 11:45:00,78.1,63.0,29.41,ESE,118,4.3,8.7,59,0.00,,,-99.99,804.0,HOBO +U30 +Weather +,2013-08-20 15:45:00,
2013-08-20 11:50:00,78.7,63.1,29.41,ESE,112,4.3,7.2,58,0.00,,,-99.99,846.0,HOBO +U30 +Weather +,2013-08-20 15:50:00,
2013-08-20 11:55:00,79.7,62.9,29.41,ESE,114,3.8,7.4,56,0.00,,,-99.99,832.0,HOBO +U30 +Weather +,2013-08-20 15:55:00,
2013-08-20 12:00:00,79.6,61.8,29.41,East,97,4.9,9.2,54,0.00,,,-99.99,893.0,HOBO +U30 +Weather +,2013-08-20 16:00:00,
2013-08-20 12:05:00,79.9,61.5,29.41,East,98,4.9,8.7,53,0.00,,,-99.99,897.0,HOBO +U30 +Weather +,2013-08-20 16:05:00,
2013-08-20 12:10:00,80.8,62.2,29.41,East,80,3.4,8.7,53,0.00,,,-99.99,884.0,HOBO +U30 +Weather +,2013-08-20 16:10:00,
2013-08-20 12:15:00,81.6,62.7,29.41,SE,132,2.5,7.8,52,0.00,,,-99.99,878.0,HOBO +U30 +Weather +,2013-08-20 16:15:00,
2013-08-20 12:20:00,80.9,61.3,29.41,SSE,161,5.4,9.6,51,0.00,,,-99.99,863.0,HOBO +U30 +Weather +,2013-08-20 16:20:00,
2013-08-20 12:25:00,82.1,61.9,29.41,South,187,3.4,6.7,50,0.00,,,-99.99,854.0,HOBO +U30 +Weather +,2013-08-20 16:25:00,
2013-08-20 12:30:00,82.1,61.5,29.41,South,177,3.8,6.7,49,0.00,,,-99.99,848.0,HOBO +U30 +Weather +,2013-08-20 16:30:00,
2013-08-20 12:35:00,79.8,59.5,29.41,SE,139,5.8,10.1,49,0.00,,,-99.99,838.0,HOBO +U30 +Weather +,2013-08-20 16:35:00,
2013-08-20 12:40:00,80.5,60.5,29.41,SSE,152,5.4,8.7,50,0.00,,,-99.99,854.0,HOBO +U30 +Weather +,2013-08-20 16:40:00,
2013-08-20 12:45:00,81.2,60.5,29.41,South,177,4.3,9.2,49,0.00,,,-99.99,836.0,HOBO +U30 +Weather +,2013-08-20 16:45:00,
2013-08-20 12:50:00,82.6,61.3,29.41,South,191,3.4,7.4,48,0.00,,,-99.99,842.0,HOBO +U30 +Weather +,2013-08-20 16:50:00,
2013-08-20 12:55:00,81.3,60.9,29.40,South,184,5.8,10.3,49,0.00,,,-99.99,843.0,HOBO +U30 +Weather +,2013-08-20 16:55:00,
2013-08-20 13:00:00,81.7,60.8,29.41,SSE,161,4.5,8.7,49,0.00,,,-99.99,863.0,HOBO +U30 +Weather +,2013-08-20 17:00:00,
2013-08-20 13:05:00,81.5,60.1,29.41,SSE,160,5.4,10.7,48,0.00,,,-99.99,844.0,HOBO +U30 +Weather +,2013-08-20 17:05:00,
2013-08-20 13:10:00,82.0,60.7,29.41,SSE,153,3.8,8.3,48,0.00,,,-99.99,836.0,HOBO +U30 +Weather +,2013-08-20 17:10:00,
2013-08-20 13:15:00,83.4,61.7,29.40,SSW,204,3.4,7.4,48,0.00,,,-99.99,838.0,HOBO +U30 +Weather +,2013-08-20 17:15:00,
2013-08-20 13:20:00,80.8,59.4,29.40,SSE,160,6.7,11.6,48,0.00,,,-99.99,839.0,HOBO +U30 +Weather +,2013-08-20 17:20:00,
2013-08-20 13:25:00,81.6,60.5,29.40,SSE,153,4.9,8.3,48,0.00,,,-99.99,837.0,HOBO +U30 +Weather +,2013-08-20 17:25:00,
2013-08-20 13:30:00,82.6,60.7,29.40,South,171,3.4,7.2,47,0.00,,,-99.99,843.0,HOBO +U30 +Weather +,2013-08-20 17:30:00,
2013-08-20 13:40:00,81.9,60.4,29.40,SE,133,4.5,10.3,48,0.00,,,-99.99,851.0,HOBO +U30 +Weather +,2013-08-20 17:40:00,
2013-08-20 13:44:00,81.9,59.6,29.40,SE,131,4.3,9.6,46,0.00,,,-99.99,851.0,HOBO +U30 +Weather +,2013-08-20 17:44:00,
2013-08-20 13:45:00,82.2,60.5,29.40,SE,145,4.5,8.7,47,0.00,,,-99.99,881.0,HOBO +U30 +Weather +,2013-08-20 17:45:00,
2013-08-20 13:50:00,81.9,60.7,29.40,SSE,152,6.7,12.1,48,0.00,,,-99.99,828.0,HOBO +U30 +Weather +,2013-08-20 17:50:00,
2013-08-20 13:55:00,82.1,60.5,29.40,SSE,147,4.9,10.1,48,0.00,,,-99.99,826.0,HOBO +U30 +Weather +,2013-08-20 17:55:00,
2013-08-20 14:00:00,82.6,59.9,29.40,South,183,4.3,7.8,46,0.00,,,-99.99,819.0,HOBO +U30 +Weather +,2013-08-20 18:00:00,
2013-08-20 14:05:00,82.8,60.7,29.40,SSE,150,4.3,7.8,47,0.00,,,-99.99,821.0,HOBO +U30 +Weather +,2013-08-20 18:05:00,
2013-08-20 14:10:00,82.0,60.2,29.40,SSE,149,6.7,11.6,47,0.00,,,-99.99,801.0,HOBO +U30 +Weather +,2013-08-20 18:10:00,
2013-08-20 14:15:00,82.8,61.1,29.40,SSE,164,4.9,10.1,47,0.00,,,-99.99,807.0,HOBO +U30 +Weather +,2013-08-20 18:15:00,
2013-08-20 14:20:00,83.5,61.0,29.40,South,185,3.8,10.1,46,0.00,,,-99.99,801.0,HOBO +U30 +Weather +,2013-08-20 18:20:00,
2013-08-20 14:25:00,82.3,60.6,29.40,SSE,152,6.3,9.6,47,0.00,,,-99.99,726.0,HOBO +U30 +Weather +,2013-08-20 18:25:00,
2013-08-20 14:30:00,81.7,60.3,29.39,SE,143,7.2,11.2,48,0.00,,,-99.99,819.0,HOBO +U30 +Weather +,2013-08-20 18:30:00,
2013-08-20 14:40:00,82.8,60.9,29.39,SE,142,3.8,9.6,47,0.00,,,-99.99,784.0,HOBO +U30 +Weather +,2013-08-20 18:40:00,
2013-08-20 14:43:00,82.0,60.3,29.39,SSE,150,5.4,10.3,47,0.00,,,-99.99,762.0,HOBO +U30 +Weather +,2013-08-20 18:43:00,
2013-08-20 14:45:00,82.7,60.9,29.39,SSW,194,4.5,9.2,47,0.00,,,-99.99,778.0,HOBO +U30 +Weather +,2013-08-20 18:45:00,
2013-08-20 14:50:00,82.9,61.0,29.39,South,190,4.9,10.3,47,0.00,,,-99.99,698.0,HOBO +U30 +Weather +,2013-08-20 18:50:00,
2013-08-20 14:55:00,82.8,61.1,29.39,South,187,5.8,9.6,47,0.00,,,-99.99,741.0,HOBO +U30 +Weather +,2013-08-20 18:55:00,
2013-08-20 15:00:00,83.5,61.6,29.39,South,181,4.5,10.3,47,0.00,,,-99.99,256.0,HOBO +U30 +Weather +,2013-08-20 19:00:00,
2013-08-20 15:05:00,84.3,61.4,29.39,South,181,3.4,6.3,46,0.00,,,-99.99,752.0,HOBO +U30 +Weather +,2013-08-20 19:05:00,
2013-08-20 15:10:00,82.7,60.4,29.39,SSE,156,4.3,6.7,46,0.00,,,-99.99,261.0,HOBO +U30 +Weather +,2013-08-20 19:10:00,
2013-08-20 15:15:00,83.3,61.8,29.39,SE,145,4.9,9.2,48,0.00,,,-99.99,779.0,HOBO +U30 +Weather +,2013-08-20 19:15:00,
2013-08-20 15:20:00,83.0,61.2,29.39,SSE,152,4.9,8.7,47,0.00,,,-99.99,746.0,HOBO +U30 +Weather +,2013-08-20 19:20:00,
2013-08-20 15:25:00,82.8,61.7,29.38,SSE,150,6.3,9.6,48,0.00,,,-99.99,691.0,HOBO +U30 +Weather +,2013-08-20 19:25:00,
2013-08-20 15:30:00,82.0,61.2,29.39,SE,145,7.2,11.6,49,0.00,,,-99.99,504.0,HOBO +U30 +Weather +,2013-08-20 19:30:00,
2013-08-20 15:40:00,82.2,61.2,29.39,SE,140,5.4,10.1,49,0.00,,,-99.99,698.0,HOBO +U30 +Weather +,2013-08-20 19:40:00,
2013-08-20 15:43:00,83.6,62.1,29.39,South,187,4.5,8.7,48,0.00,,,-99.99,677.0,HOBO +U30 +Weather +,2013-08-20 19:43:00,
2013-08-20 15:45:00,82.4,61.4,29.38,SSE,156,6.7,12.5,49,0.00,,,-99.99,667.0,HOBO +U30 +Weather +,2013-08-20 19:45:00,
2013-08-20 15:50:00,82.7,61.7,29.39,SSE,150,6.7,10.1,49,0.00,,,-99.99,648.0,HOBO +U30 +Weather +,2013-08-20 19:50:00,
2013-08-20 15:55:00,83.0,61.6,29.38,SE,139,5.8,10.7,48,0.00,,,-99.99,636.0,HOBO +U30 +Weather +,2013-08-20 19:55:00,
2013-08-20 16:00:00,83.6,61.6,29.38,SSE,152,4.3,8.7,47,0.00,,,-99.99,641.0,HOBO +U30 +Weather +,2013-08-20 20:00:00,
2013-08-20 16:05:00,83.2,62.2,29.38,SSE,156,7.4,13.0,49,0.00,,,-99.99,632.0,HOBO +U30 +Weather +,2013-08-20 20:05:00,
2013-08-20 16:10:00,82.2,61.2,29.38,SSE,149,6.3,10.1,49,0.00,,,-99.99,376.0,HOBO +U30 +Weather +,2013-08-20 20:10:00,
2013-08-20 16:15:00,83.2,62.3,29.38,SSE,167,4.9,10.3,49,0.00,,,-99.99,587.0,HOBO +U30 +Weather +,2013-08-20 20:15:00,
2013-08-20 16:20:00,82.4,61.4,29.38,South,170,6.3,10.7,49,0.00,,,-99.99,551.0,HOBO +U30 +Weather +,2013-08-20 20:20:00,
2013-08-20 16:25:00,82.7,61.2,29.38,South,178,5.4,10.3,48,0.00,,,-99.99,537.0,HOBO +U30 +Weather +,2013-08-20 20:25:00,
2013-08-20 16:30:00,83.5,61.6,29.38,South,180,4.3,9.2,47,0.00,,,-99.99,523.0,HOBO +U30 +Weather +,2013-08-20 20:30:00,
2013-08-20 16:40:00,83.5,61.8,29.38,South,174,4.5,9.2,48,0.00,,,-99.99,499.0,HOBO +U30 +Weather +,2013-08-20 20:40:00,
2013-08-20 16:43:00,83.5,61.4,29.38,South,178,3.8,8.3,47,0.00,,,-99.99,511.0,HOBO +U30 +Weather +,2013-08-20 20:43:00,
2013-08-20 16:45:00,83.6,61.5,29.38,South,170,3.8,8.3,47,0.00,,,-99.99,482.0,HOBO +U30 +Weather +,2013-08-20 20:45:00,
2013-08-20 16:50:00,82.7,61.0,29.38,South,180,4.9,10.1,48,0.00,,,-99.99,472.0,HOBO +U30 +Weather +,2013-08-20 20:50:00,
2013-08-20 16:55:00,82.7,61.1,29.38,SSE,163,4.3,7.4,48,0.00,,,-99.99,459.0,HOBO +U30 +Weather +,2013-08-20 20:55:00,
2013-08-20 17:00:00,82.7,61.5,29.38,SSE,159,4.5,8.3,48,0.00,,,-99.99,452.0,HOBO +U30 +Weather +,2013-08-20 21:00:00,
2013-08-20 17:05:00,83.1,61.7,29.38,SSE,157,4.9,7.8,48,0.00,,,-99.99,431.0,HOBO +U30 +Weather +,2013-08-20 21:05:00,
2013-08-20 17:10:00,83.0,61.5,29.38,South,180,4.9,9.6,48,0.00,,,-99.99,411.0,HOBO +U30 +Weather +,2013-08-20 21:10:00,
2013-08-20 17:15:00,82.2,60.9,29.38,South,174,4.9,8.3,48,0.00,,,-99.99,321.0,HOBO +U30 +Weather +,2013-08-20 21:15:00,
2013-08-20 17:20:00,82.4,61.2,29.38,SSE,161,4.5,7.4,48,0.00,,,-99.99,378.0,HOBO +U30 +Weather +,2013-08-20 21:20:00,
2013-08-20 17:25:00,82.4,61.2,29.38,SSE,160,4.5,7.4,48,0.00,,,-99.99,371.0,HOBO +U30 +Weather +,2013-08-20 21:25:00,
2013-08-20 17:30:00,82.0,60.9,29.38,SSE,160,4.5,10.1,48,0.00,,,-99.99,346.0,HOBO +U30 +Weather +,2013-08-20 21:30:00,
2013-08-20 17:40:00,82.0,61.3,29.38,SSE,163,4.5,7.4,49,0.00,,,-99.99,326.0,HOBO +U30 +Weather +,2013-08-20 21:40:00,
2013-08-20 17:42:00,81.3,61.0,29.38,SSE,152,6.3,11.2,50,0.00,,,-99.99,334.0,HOBO +U30 +Weather +,2013-08-20 21:42:00,
2013-08-20 17:45:00,81.7,60.5,29.38,South,187,4.5,8.3,48,0.00,,,-99.99,314.0,HOBO +U30 +Weather +,2013-08-20 21:45:00,
2013-08-20 17:50:00,82.6,61.1,29.38,South,184,3.4,6.3,48,0.00,,,-99.99,298.0,HOBO +U30 +Weather +,2013-08-20 21:50:00,
2013-08-20 17:55:00,83.3,61.5,29.38,SSE,160,2.0,4.5,47,0.00,,,-99.99,283.0,HOBO +U30 +Weather +,2013-08-20 21:55:00,
2013-08-20 18:00:00,81.7,60.9,29.38,SSE,153,4.9,7.8,49,0.00,,,-99.99,266.0,HOBO +U30 +Weather +,2013-08-20 22:00:00,
2013-08-20 18:05:00,81.7,61.3,29.38,SSE,163,3.8,7.2,50,0.00,,,-99.99,256.0,HOBO +U30 +Weather +,2013-08-20 22:05:00,
2013-08-20 18:10:00,81.2,61.0,29.38,South,177,3.8,7.8,50,0.00,,,-99.99,242.0,HOBO +U30 +Weather +,2013-08-20 22:10:00,
2013-08-20 18:15:00,81.3,61.5,29.38,South,177,3.4,7.2,50,0.00,,,-99.99,227.0,HOBO +U30 +Weather +,2013-08-20 22:15:00,
2013-08-20 18:20:00,80.7,60.9,29.38,South,185,3.8,7.2,50,0.00,,,-99.99,213.0,HOBO +U30 +Weather +,2013-08-20 22:20:00,
2013-08-20 18:25:00,80.7,60.8,29.38,South,180,3.8,7.2,50,0.00,,,-99.99,198.0,HOBO +U30 +Weather +,2013-08-20 22:25:00,
2013-08-20 18:30:00,80.7,61.3,29.38,South,191,3.4,6.7,51,0.00,,,-99.99,184.0,HOBO +U30 +Weather +,2013-08-20 22:30:00,
2013-08-20 18:40:00,80.5,61.1,29.38,SSE,166,2.5,5.8,51,0.00,,,-99.99,157.0,HOBO +U30 +Weather +,2013-08-20 22:40:00,
2013-08-20 18:43:00,80.1,60.7,29.38,South,184,4.5,7.8,51,0.00,,,-99.99,169.0,HOBO +U30 +Weather +,2013-08-20 22:43:00,
2013-08-20 18:45:00,80.0,60.7,29.38,South,175,2.9,5.4,51,0.00,,,-99.99,144.0,HOBO +U30 +Weather +,2013-08-20 22:45:00,
2013-08-20 18:50:00,80.2,61.1,29.38,South,183,2.0,4.3,52,0.00,,,-99.99,131.0,HOBO +U30 +Weather +,2013-08-20 22:50:00,
2013-08-20 18:55:00,79.9,60.9,29.38,South,171,2.0,4.5,52,0.00,,,-99.99,117.0,HOBO +U30 +Weather +,2013-08-20 22:55:00,
2013-08-20 19:00:00,79.6,60.9,29.38,South,178,2.0,4.5,52,0.00,,,-99.99,104.0,HOBO +U30 +Weather +,2013-08-20 23:00:00,
2013-08-20 19:05:00,78.7,60.5,29.38,South,191,2.9,5.4,53,0.00,,,-99.99,93.0,HOBO +U30 +Weather +,2013-08-20 23:05:00,
2013-08-20 19:10:00,79.0,61.2,29.38,South,175,1.6,4.3,54,0.00,,,-99.99,79.0,HOBO +U30 +Weather +,2013-08-20 23:10:00,
2013-08-20 19:15:00,78.8,61.1,29.38,South,180,1.6,2.5,54,0.00,,,-99.99,67.0,HOBO +U30 +Weather +,2013-08-20 23:15:00,
2013-08-20 19:20:00,78.7,61.1,29.38,South,174,1.3,2.5,54,0.00,,,-99.99,54.0,HOBO +U30 +Weather +,2013-08-20 23:20:00,
2013-08-20 19:25:00,78.3,60.8,29.38,South,190,1.6,3.4,54,0.00,,,-99.99,44.0,HOBO +U30 +Weather +,2013-08-20 23:25:00,
2013-08-20 19:30:00,78.1,61.0,29.38,SSW,195,1.3,1.6,55,0.00,,,-99.99,34.0,HOBO +U30 +Weather +,2013-08-20 23:30:00,
2013-08-20 19:40:00,77.5,61.0,29.38,South,187,0.4,1.3,56,0.00,,,-99.99,19.0,HOBO +U30 +Weather +,2013-08-20 23:40:00,
2013-08-20 19:42:00,77.9,61.1,29.38,South,191,0.9,2.0,56,0.00,,,-99.99,26.0,HOBO +U30 +Weather +,2013-08-20 23:42:00,
2013-08-20 19:45:00,77.1,60.7,29.39,South,187,0.9,1.6,56,0.00,,,-99.99,13.0,HOBO +U30 +Weather +,2013-08-20 23:45:00,
2013-08-20 19:50:00,76.8,60.4,29.39,SSE,167,1.3,2.9,56,0.00,,,-99.99,9.0,HOBO +U30 +Weather +,2013-08-20 23:50:00,
2013-08-20 19:55:00,76.4,60.2,29.39,SSE,149,1.6,2.5,57,0.00,,,-99.99,6.0,HOBO +U30 +Weather +,2013-08-20 23:55:00,
2013-08-20 20:00:00,76.0,60.2,29.39,SE,131,2.0,2.9,57,0.00,,,-99.99,2.0,HOBO +U30 +Weather +,2013-08-21 00:00:00,
2013-08-20 20:05:00,75.7,60.1,29.39,SE,126,1.6,3.4,58,0.00,,,-99.99,1.0,HOBO +U30 +Weather +,2013-08-21 00:05:00,
2013-08-20 20:10:00,75.6,60.2,29.39,SE,126,1.3,2.5,58,0.00,,,-99.99,1.0,HOBO +U30 +Weather +,2013-08-21 00:10:00,
2013-08-20 20:15:00,75.8,60.1,29.39,SE,125,2.0,2.9,58,0.00,,,-99.99,1.0,HOBO +U30 +Weather +,2013-08-21 00:15:00,
2013-08-20 20:20:00,75.5,60.0,29.39,ESE,114,2.0,4.5,58,0.00,,,-99.99,1.0,HOBO +U30 +Weather +,2013-08-21 00:20:00,
2013-08-20 20:25:00,75.0,59.8,29.39,ESE,104,2.5,4.5,59,0.00,,,-99.99,1.0,HOBO +U30 +Weather +,2013-08-21 00:25:00,
2013-08-20 20:30:00,74.9,59.8,29.39,East,88,2.5,4.3,59,0.00,,,-99.99,1.0,HOBO +U30 +Weather +,2013-08-21 00:30:00,
2013-08-20 20:40:00,75.2,59.5,29.39,ESE,110,4.3,6.7,58,0.00,,,-99.99,1.0,HOBO +U30 +Weather +,2013-08-21 00:40:00,
2013-08-20 20:41:00,75.2,60.0,29.39,East,90,3.8,6.3,59,0.00,,,-99.99,1.0,HOBO +U30 +Weather +,2013-08-21 00:41:00,
2013-08-20 20:45:00,75.1,59.1,29.40,ESE,112,4.3,6.7,57,0.00,,,-99.99,1.0,HOBO +U30 +Weather +,2013-08-21 00:45:00,
2013-08-20 20:50:00,74.7,58.7,29.40,ESE,117,3.4,5.8,57,0.00,,,-99.99,1.0,HOBO +U30 +Weather +,2013-08-21 00:50:00,
2013-08-20 20:55:00,74.3,58.8,29.40,ESE,121,2.9,4.5,58,0.00,,,-99.99,1.0,HOBO +U30 +Weather +,2013-08-21 00:55:00,
2013-08-20 21:00:00,73.9,58.8,29.41,East,101,2.0,4.3,59,0.00,,,-99.99,1.0,HOBO +U30 +Weather +,2013-08-21 01:00:00,
2013-08-20 21:05:00,73.9,59.2,29.41,East,91,3.8,7.2,60,0.00,,,-99.99,1.0,HOBO +U30 +Weather +,2013-08-21 01:05:00,
2013-08-20 21:10:00,73.3,59.0,29.41,East,90,3.4,5.4,60,0.00,,,-99.99,1.0,HOBO +U30 +Weather +,2013-08-21 01:10:00,
2013-08-20 21:15:00,72.9,59.2,29.41,East,87,2.9,4.3,62,0.00,,,-99.99,1.0,HOBO +U30 +Weather +,2013-08-21 01:15:00,
2013-08-20 21:20:00,72.9,59.3,29.41,East,86,2.9,4.9,62,0.00,,,-99.99,1.0,HOBO +U30 +Weather +,2013-08-21 01:20:00,
2013-08-20 21:25:00,72.6,59.2,29.41,East,87,2.9,4.5,62,0.00,,,-99.99,1.0,HOBO +U30 +Weather +,2013-08-21 01:25:00,
2013-08-20 21:30:00,72.4,59.3,29.41,East,84,2.5,4.3,63,0.00,,,-99.99,1.0,HOBO +U30 +Weather +,2013-08-21 01:30:00,
2013-08-20 21:35:00,72.2,59.5,29.41,ENE,73,3.4,5.4,64,0.00,,,-99.99,1.0,HOBO +U30 +Weather +,2013-08-21 01:35:00,
2013-08-20 21:40:00,72.1,59.7,29.41,East,80,4.3,7.4,65,0.00,,,-99.99,1.0,HOBO +U30 +Weather +,2013-08-21 01:40:00,
2013-08-20 21:45:00,72.0,59.9,29.41,East,80,3.4,4.5,65,0.00,,,-99.99,1.0,HOBO +U30 +Weather +,2013-08-21 01:45:00,
2013-08-20 21:50:00,72.1,60.1,29.41,East,95,2.5,4.3,66,0.00,,,-99.99,1.0,HOBO +U30 +Weather +,2013-08-21 01:50:00,
2013-08-20 21:55:00,72.7,60.2,29.41,East,91,3.8,6.7,64,0.00,,,-99.99,1.0,HOBO +U30 +Weather +,2013-08-21 01:55:00,
2013-08-20 22:00:00,71.9,59.6,29.42,ESE,121,3.4,4.9,65,0.00,,,-99.99,1.0,HOBO +U30 +Weather +,2013-08-21 02:00:00,
2013-08-20 22:05:00,71.7,59.6,29.42,East,100,2.9,4.9,65,0.00,,,-99.99,1.0,HOBO +U30 +Weather +,2013-08-21 02:05:00,
2013-08-20 22:10:00,72.1,60.0,29.42,East,90,4.5,9.6,65,0.00,,,-99.99,1.0,HOBO +U30 +Weather +,2013-08-21 02:10:00,
2013-08-20 22:15:00,72.0,59.5,29.42,East,97,4.3,8.3,64,0.00,,,-99.99,1.0,HOBO +U30 +Weather +,2013-08-21 02:15:00,
2013-08-20 22:20:00,71.7,59.4,29.42,East,90,3.8,6.7,65,0.00,,,-99.99,1.0,HOBO +U30 +Weather +,2013-08-21 02:20:00,
2013-08-20 22:25:00,71.5,59.5,29.42,East,87,3.8,6.3,65,0.00,,,-99.99,1.0,HOBO +U30 +Weather +,2013-08-21 02:25:00,
2013-08-20 22:30:00,71.4,59.4,29.42,ENE,77,4.3,7.8,65,0.00,,,-99.99,1.0,HOBO +U30 +Weather +,2013-08-21 02:30:00,
2013-08-20 22:35:00,71.2,59.3,29.42,ENE,77,3.4,5.8,66,0.00,,,-99.99,1.0,HOBO +U30 +Weather +,2013-08-21 02:35:00,
2013-08-20 22:40:00,70.8,59.3,29.42,ENE,77,4.3,6.3,66,0.00,,,-99.99,1.0,HOBO +U30 +Weather +,2013-08-21 02:40:00,
2013-08-20 22:45:00,70.8,59.4,29.42,East,83,4.9,7.4,67,0.00,,,-99.99,1.0,HOBO +U30 +Weather +,2013-08-21 02:45:00,
2013-08-20 22:50:00,70.6,59.3,29.43,East,90,4.3,7.2,67,0.00,,,-99.99,1.0,HOBO +U30 +Weather +,2013-08-21 02:50:00,
2013-08-20 22:55:00,70.5,59.4,29.43,East,81,4.5,7.8,67,0.00,,,-99.99,1.0,HOBO +U30 +Weather +,2013-08-21 02:55:00,
2013-08-20 23:00:00,70.4,59.4,29.43,ENE,77,4.9,7.8,68,0.00,,,-99.99,1.0,HOBO +U30 +Weather +,2013-08-21 03:00:00,
2013-08-20 23:05:00,70.2,59.3,29.42,ENE,74,4.5,6.3,68,0.00,,,-99.99,1.0,HOBO +U30 +Weather +,2013-08-21 03:05:00,
2013-08-20 23:10:00,70.0,59.3,29.42,ENE,73,2.9,5.8,68,0.00,,,-99.99,1.0,HOBO +U30 +Weather +,2013-08-21 03:10:00,
2013-08-20 23:15:00,69.9,59.2,29.43,ENE,60,3.4,5.8,68,0.00,,,-99.99,1.0,HOBO +U30 +Weather +,2013-08-21 03:15:00,
2013-08-20 23:20:00,69.5,59.3,29.43,NE,55,3.8,6.7,69,0.00,,,-99.99,1.0,HOBO +U30 +Weather +,2013-08-21 03:20:00,
2013-08-20 23:25:00,69.5,59.5,29.43,NE,55,3.8,5.8,70,0.00,,,-99.99,1.0,HOBO +U30 +Weather +,2013-08-21 03:25:00,
2013-08-20 23:30:00,69.2,59.5,29.43,NE,56,3.8,6.7,71,0.00,,,-99.99,1.0,HOBO +U30 +Weather +,2013-08-21 03:30:00,
2013-08-20 23:35:00,69.3,59.6,29.43,ENE,63,4.3,7.2,71,0.00,,,-99.99,1.0,HOBO +U30 +Weather +,2013-08-21 03:35:00,
2013-08-20 23:40:00,69.0,59.4,29.43,ENE,74,3.4,5.8,71,0.00,,,-99.99,1.0,HOBO +U30 +Weather +,2013-08-21 03:40:00,
2013-08-20 23:45:00,68.6,59.2,29.43,ENE,73,4.5,6.7,71,0.00,,,-99.99,1.0,HOBO +U30 +Weather +,2013-08-21 03:45:00,
2013-08-20 23:50:00,68.4,59.5,29.44,ENE,63,6.3,7.8,72,0.00,,,-99.99,1.0,HOBO +U30 +Weather +,2013-08-21 03:50:00,
2013-08-20 23:55:00,68.7,59.5,29.43,ENE,65,6.3,10.1,72,0.00,,,-99.99,1.0,HOBO +U30 +Weather +,2013-08-21 03:55:00,